createdAt,value
2023-03-24T00:01:29.563Z,90.83
2023-03-24T00:03:59.380Z,91.63
2023-03-24T00:06:27.902Z,92.37
2023-03-24T00:08:56.172Z,92.56
2023-03-24T00:11:26.463Z,92.07
2023-03-24T00:13:58.486Z,93.11
2023-03-24T00:16:27.322Z,93.52
2023-03-24T00:18:55.982Z,95.33
2023-03-24T00:21:26.197Z,95.17
2023-03-24T00:23:58.339Z,95.03
2023-03-24T00:26:28.502Z,94.08
2023-03-24T00:28:57.201Z,94.78
2023-03-24T00:31:26.803Z,95.12
2023-03-24T00:33:55.311Z,96.02
2023-03-24T00:36:25.912Z,96.31
2023-03-24T00:38:55.847Z,96.77
2023-03-24T00:41:26.776Z,96.68
2023-03-24T00:43:59.337Z,97.52
2023-03-24T00:46:29.215Z,96.46
2023-03-24T00:49:05.547Z,97.27
2023-03-24T00:51:36.997Z,97.46
2023-03-24T00:54:06.941Z,98.21
2023-03-24T00:56:37.835Z,98.32
2023-03-24T00:59:10.248Z,97.80
2023-03-24T01:01:40.865Z,97.60
2023-03-24T01:04:36.193Z,99.01
2023-03-24T01:07:04.553Z,98.41
2023-03-24T01:09:34.051Z,97.85
2023-03-24T01:12:02.309Z,97.67
2023-03-24T01:14:32.356Z,97.58
2023-03-24T01:17:01.079Z,98.26
2023-03-24T01:19:29.371Z,98.41
2023-03-24T01:21:57.633Z,97.65
2023-03-24T01:24:26.004Z,96.88
2023-03-24T01:26:54.414Z,97.40
2023-03-24T01:29:22.717Z,96.33
2023-03-24T01:31:52.830Z,96.92
2023-03-24T01:34:21.116Z,97.48
2023-03-24T01:36:49.562Z,97.33
2023-03-24T01:39:17.912Z,97.87
2023-03-24T01:41:46.209Z,97.42
2023-03-24T01:44:34.589Z,96.51
2023-03-24T01:47:07.657Z,97.12
2023-03-24T01:49:39.245Z,96.65
2023-03-24T01:52:12.418Z,96.04
2023-03-24T01:54:45.497Z,95.42
2023-03-24T01:57:22.993Z,94.84
2023-03-24T01:59:55.833Z,94.53
2023-03-24T02:02:55.012Z,95.01
2023-03-24T02:05:31.225Z,94.38
2023-03-24T02:08:06.155Z,94.83
2023-03-24T02:10:36.761Z,95.03
2023-03-24T02:13:06.415Z,94.33
2023-03-24T02:15:41.570Z,94.86
2023-03-24T02:18:21.026Z,94.91
2023-03-24T02:21:37.825Z,93.92
2023-03-24T02:24:47.171Z,94.85
2023-03-24T02:27:57.408Z,93.93
2023-03-24T02:31:09.884Z,94.24
2023-03-24T02:34:31.610Z,94.33
2023-03-24T02:37:55.123Z,93.76
2023-03-24T02:40:36.842Z,94.01
2023-03-24T02:43:20.554Z,94.12
2023-03-24T02:46:02.135Z,93.28
2023-03-24T02:48:38.681Z,92.57
2023-03-24T02:51:14.806Z,92.37
2023-03-24T02:53:56.695Z,92.67
2023-03-24T02:56:37.649Z,92.89
2023-03-24T02:59:22.949Z,92.14
2023-03-24T03:02:02.916Z,91.50
2023-03-24T03:04:50.576Z,91.39
2023-03-24T03:07:25.202Z,91.68
2023-03-24T03:09:58.441Z,90.79
2023-03-24T03:12:34.091Z,90.92
2023-03-24T03:15:07.736Z,90.38
2023-03-24T03:17:41.939Z,91.10
2023-03-24T03:20:16.421Z,90.57
2023-03-24T03:22:50.714Z,90.90
2023-03-24T03:25:24.741Z,91.27
2023-03-24T03:27:56.888Z,90.95
2023-03-24T03:30:31.418Z,89.40
2023-03-24T03:33:08.122Z,90.02
2023-03-24T03:35:43.124Z,89.54
2023-03-24T03:38:19.532Z,89.47
2023-03-24T03:40:53.167Z,90.02
2023-03-24T03:43:28.703Z,90.23
2023-03-24T03:45:57.561Z,89.36
2023-03-24T03:48:32.836Z,90.17
2023-03-24T03:51:13.231Z,89.85
2023-03-24T03:53:52.149Z,89.87
2023-03-24T03:56:26.367Z,89.90
2023-03-24T03:59:29.218Z,90.59
2023-03-24T04:01:59.333Z,90.36
2023-03-24T04:05:14.971Z,88.90
2023-03-24T04:08:15.744Z,88.78
2023-03-24T04:11:33.690Z,87.66
2023-03-24T04:15:05.120Z,87.83
2023-03-24T04:18:23.579Z,88.41
2023-03-24T04:21:34.442Z,88.69
2023-03-24T04:24:19.764Z,89.25
2023-03-24T04:26:55.835Z,89.42
2023-03-24T04:29:34.371Z,89.31
2023-03-24T04:32:14.399Z,89.71
2023-03-24T04:34:50.829Z,88.21
2023-03-24T04:37:38.586Z,88.33
2023-03-24T04:40:18.430Z,88.30
2023-03-24T04:42:52.663Z,86.98
2023-03-24T04:45:25.719Z,86.23
2023-03-24T04:48:20.352Z,84.88
2023-03-24T04:51:10.459Z,84.86
2023-03-24T04:54:07.660Z,85.27
2023-03-24T04:56:46.020Z,84.80
2023-03-24T04:59:24.622Z,85.45
2023-03-24T05:01:53.553Z,86.01
2023-03-24T05:04:40.262Z,86.57
2023-03-24T05:07:18.084Z,86.43
2023-03-24T05:09:49.451Z,87.62
2023-03-24T05:12:18.007Z,87.70
2023-03-24T05:15:11.873Z,87.65
2023-03-24T05:17:44.400Z,88.47
2023-03-24T05:20:15.703Z,88.14
2023-03-24T05:22:49.719Z,88.42
2023-03-24T05:25:18.539Z,88.46
2023-03-24T05:27:47.288Z,89.60
2023-03-24T05:30:27.277Z,89.37
2023-03-24T05:33:02.762Z,90.52
2023-03-24T05:35:32.514Z,91.00
2023-03-24T05:38:01.344Z,90.26
2023-03-24T05:40:29.813Z,91.02
2023-03-24T05:43:18.821Z,90.98
2023-03-24T05:46:00.144Z,90.80
2023-03-24T05:48:32.321Z,90.77
2023-03-24T05:51:15.428Z,90.54
2023-03-24T05:53:43.863Z,90.65
2023-03-24T05:56:18.118Z,90.90
2023-03-24T05:59:03.113Z,90.79
2023-03-24T06:01:53.332Z,91.59
2023-03-24T06:04:30.608Z,92.66
2023-03-24T06:07:06.238Z,95.40
2023-03-24T06:09:40.889Z,96.08
2023-03-24T06:12:12.286Z,97.03
2023-03-24T06:14:47.358Z,97.55
2023-03-24T06:17:15.845Z,98.28
2023-03-24T06:19:49.538Z,98.59
2023-03-24T06:22:38.606Z,99.27
2023-03-24T06:25:12.570Z,99.80
2023-03-24T06:27:46.265Z,100.00
2023-03-24T06:30:17.721Z,100.00
2023-03-24T06:32:47.448Z,100.00
2023-03-24T06:35:17.815Z,100.00
2023-03-24T06:38:04.934Z,100.00
2023-03-24T06:40:33.824Z,100.00
2023-03-24T06:43:03.037Z,100.00
2023-03-24T06:45:32.969Z,100.00
2023-03-24T06:48:01.513Z,100.00
2023-03-24T06:50:33.232Z,100.00
2023-03-24T06:53:04.924Z,100.00
2023-03-24T06:55:36.626Z,100.00
2023-03-24T06:58:05.934Z,100.00
2023-03-24T07:01:01.620Z,100.00
2023-03-24T07:03:48.509Z,100.00
2023-03-24T07:06:25.954Z,100.00
2023-03-24T07:08:59.653Z,100.00
2023-03-24T07:11:29.989Z,100.00
2023-03-24T07:14:00.550Z,100.00
2023-03-24T07:16:31.163Z,100.00
2023-03-24T07:19:19.689Z,100.00
2023-03-24T07:21:53.457Z,100.00
2023-03-24T07:24:32.901Z,100.00
2023-03-24T07:27:14.090Z,100.00
2023-03-24T07:29:42.569Z,100.00
2023-03-24T07:32:19.619Z,100.00
2023-03-24T07:34:49.710Z,100.00
2023-03-24T07:37:18.128Z,100.00
2023-03-24T07:39:48.154Z,100.00
2023-03-24T07:42:16.643Z,100.00
2023-03-24T07:45:17.507Z,100.00
2023-03-24T07:47:48.185Z,100.00
2023-03-24T07:50:16.627Z,100.00
2023-03-24T07:52:50.009Z,100.00
2023-03-24T07:55:22.839Z,100.00
2023-03-24T07:58:23.630Z,100.00
2023-03-24T08:01:19.996Z,100.00
2023-03-24T08:03:54.945Z,100.00
2023-03-24T08:06:44.447Z,100.00
2023-03-24T08:09:12.729Z,100.00
2023-03-24T08:11:42.483Z,100.00
2023-03-24T08:14:10.822Z,100.00
2023-03-24T08:16:39.853Z,100.00
2023-03-24T08:19:08.126Z,100.00
2023-03-24T08:21:36.330Z,100.00
2023-03-24T08:24:04.764Z,100.00
2023-03-24T08:26:35.299Z,100.00
2023-03-24T08:29:06.065Z,100.00
2023-03-24T08:31:34.979Z,100.00
2023-03-24T08:34:04.497Z,100.00
2023-03-24T08:36:32.843Z,100.00
2023-03-24T08:39:01.486Z,100.00
2023-03-24T08:41:34.871Z,100.00
2023-03-24T08:44:07.494Z,100.00
2023-03-24T08:46:36.177Z,100.00
2023-03-24T08:49:05.032Z,100.00
2023-03-24T08:51:33.930Z,100.00
2023-03-24T08:54:03.926Z,100.00
2023-03-24T08:56:32.249Z,100.00
2023-03-24T08:59:00.864Z,100.00
2023-03-24T09:01:30.760Z,100.00
2023-03-24T09:03:59.415Z,100.00
2023-03-24T09:06:29.863Z,100.00
2023-03-24T09:08:58.214Z,100.00
2023-03-24T09:11:26.646Z,100.00
2023-03-24T09:13:55.038Z,100.00
2023-03-24T09:16:23.499Z,100.00
2023-03-24T09:18:53.328Z,100.00
2023-03-24T09:21:21.650Z,100.00
2023-03-24T09:23:51.011Z,100.00
2023-03-24T09:26:19.270Z,100.00
2023-03-24T09:28:47.911Z,100.00
2023-03-24T09:31:16.152Z,100.00
2023-03-24T09:33:44.412Z,100.00
2023-03-24T09:36:14.224Z,100.00
2023-03-24T09:38:42.456Z,100.00
2023-03-24T09:41:19.241Z,100.00
2023-03-24T09:43:56.757Z,100.00
2023-03-24T09:46:32.901Z,100.00
2023-03-24T09:49:01.206Z,100.00
2023-03-24T09:51:34.249Z,100.00
2023-03-24T09:54:12.166Z,100.00
2023-03-24T09:56:43.698Z,100.00
2023-03-24T09:59:26.554Z,100.00
2023-03-24T10:01:54.761Z,100.00
2023-03-24T10:04:27.741Z,100.00
2023-03-24T10:07:04.937Z,100.00
2023-03-24T10:09:36.569Z,100.00
2023-03-24T10:12:18.519Z,100.00
2023-03-24T10:14:59.438Z,100.00
2023-03-24T10:17:40.761Z,100.00
2023-03-24T10:20:25.816Z,100.00
2023-03-24T10:23:03.077Z,100.00
2023-03-24T10:25:44.834Z,100.00
2023-03-24T10:28:45.612Z,100.00
2023-03-24T10:31:18.607Z,100.00
2023-03-24T10:33:48.089Z,100.00
2023-03-24T10:36:18.945Z,100.00
2023-03-24T10:38:49.542Z,100.00
2023-03-24T10:41:21.131Z,100.00
2023-03-24T10:43:53.569Z,100.00
2023-03-24T10:46:26.405Z,100.00
2023-03-24T10:49:10.068Z,100.00
2023-03-24T10:51:38.597Z,100.00
2023-03-24T10:54:19.066Z,100.00
2023-03-24T10:56:50.981Z,99.09
2023-03-24T10:59:28.807Z,99.60
2023-03-24T11:02:00.621Z,98.82
2023-03-24T11:04:58.822Z,96.13
2023-03-24T11:07:34.587Z,96.51
2023-03-24T11:10:15.620Z,93.93
2023-03-24T11:13:02.468Z,93.06
2023-03-24T11:15:32.230Z,92.47
2023-03-24T11:18:02.841Z,92.81
2023-03-24T11:20:34.286Z,90.08
2023-03-24T11:23:13.054Z,90.02
2023-03-24T11:25:47.587Z,89.06
2023-03-24T11:28:20.497Z,89.35
2023-03-24T11:30:51.846Z,90.59
2023-03-24T11:33:36.190Z,90.51
2023-03-24T11:36:45.330Z,90.76
2023-03-24T11:39:21.691Z,89.38
2023-03-24T11:42:04.613Z,88.89
2023-03-24T11:44:44.504Z,88.70
2023-03-24T11:47:19.596Z,89.19
2023-03-24T11:49:53.620Z,88.73
2023-03-24T11:52:25.831Z,89.10
2023-03-24T11:54:54.226Z,88.19
2023-03-24T11:57:37.745Z,87.68
2023-03-24T12:00:17.252Z,87.43
2023-03-24T12:03:07.577Z,86.79
2023-03-24T12:05:42.974Z,86.62
2023-03-24T12:08:27.675Z,85.29
2023-03-24T12:11:15.707Z,85.92
2023-03-24T12:13:51.549Z,84.47
2023-03-24T12:16:40.483Z,84.23
2023-03-24T12:19:34.911Z,83.16
2023-03-24T12:22:21.118Z,83.00
2023-03-24T12:25:17.748Z,83.39
2023-03-24T12:28:00.256Z,83.87
2023-03-24T12:30:37.123Z,82.73
2023-03-24T12:33:24.780Z,83.40
2023-03-24T12:36:14.550Z,82.96
2023-03-24T12:38:58.923Z,82.57
2023-03-24T12:41:45.620Z,82.81
2023-03-24T12:44:42.519Z,81.13
2023-03-24T12:47:44.454Z,79.26
2023-03-24T12:50:28.253Z,78.80
2023-03-24T12:53:23.075Z,78.21
2023-03-24T12:55:55.695Z,82.77
2023-03-24T12:58:29.084Z,84.10
2023-03-24T13:01:04.777Z,86.41
2023-03-24T13:06:49.910Z,88.49
2023-03-24T13:09:35.097Z,89.84
2023-03-24T13:12:08.904Z,90.46
2023-03-24T13:14:50.556Z,92.09
2023-03-24T13:17:27.110Z,92.45
2023-03-24T13:20:06.365Z,92.40
2023-03-24T13:22:35.801Z,93.52
2023-03-24T13:25:11.689Z,95.13
2023-03-24T13:27:42.538Z,96.99
2023-03-24T13:30:31.405Z,99.16
2023-03-24T13:33:06.209Z,100.00
2023-03-24T13:36:05.099Z,100.00
2023-03-24T13:38:42.252Z,100.00
2023-03-24T13:41:18.720Z,99.93
2023-03-24T13:43:50.419Z,96.34
2023-03-24T13:46:19.163Z,98.83
2023-03-24T13:48:52.585Z,100.00
2023-03-24T13:51:27.262Z,100.00
2023-03-24T13:53:59.583Z,100.00
2023-03-24T13:56:33.628Z,100.00
2023-03-24T13:59:28.611Z,100.00
2023-03-24T14:02:48.739Z,100.00
2023-03-24T14:05:56.450Z,100.00
2023-03-24T14:08:44.735Z,100.00
2023-03-24T14:11:49.441Z,100.00
2023-03-24T14:14:24.136Z,100.00
2023-03-24T14:17:07.309Z,100.00
2023-03-24T14:19:39.453Z,100.00
2023-03-24T14:22:15.767Z,100.00
2023-03-24T14:24:48.372Z,100.00
2023-03-24T14:27:34.437Z,100.00
2023-03-24T14:30:07.551Z,100.00
2023-03-24T14:32:41.222Z,100.00
2023-03-24T14:35:27.613Z,100.00
2023-03-24T14:38:00.226Z,100.00
2023-03-24T14:40:36.025Z,100.00
2023-03-24T14:43:23.175Z,100.00
2023-03-24T14:46:01.862Z,100.00
2023-03-24T14:48:39.392Z,100.00
2023-03-24T14:51:36.360Z,100.00
2023-03-24T14:54:08.115Z,100.00
2023-03-24T14:56:44.575Z,100.00
2023-03-24T14:59:25.088Z,100.00
2023-03-24T15:02:01.686Z,100.00
2023-03-24T15:04:30.007Z,100.00
2023-03-24T15:07:11.637Z,100.00
2023-03-24T15:09:39.856Z,100.00
2023-03-24T15:12:09.513Z,100.00
2023-03-24T15:14:38.514Z,100.00
2023-03-24T15:17:17.926Z,100.00
2023-03-24T15:19:46.830Z,100.00
2023-03-24T15:22:15.395Z,100.00
2023-03-24T15:24:44.834Z,100.00
2023-03-24T15:27:26.318Z,100.00
2023-03-24T15:29:59.013Z,100.00
2023-03-24T15:32:31.913Z,100.00
2023-03-24T15:35:05.695Z,100.00
2023-03-24T15:37:40.549Z,99.86
2023-03-24T15:40:35.401Z,100.00
2023-03-24T15:43:09.524Z,100.00
2023-03-24T15:45:49.502Z,100.00
2023-03-24T15:48:22.996Z,98.20
2023-03-24T15:51:00.817Z,98.46
2023-03-24T15:53:31.692Z,99.37
2023-03-24T15:56:14.207Z,100.00
2023-03-24T15:58:55.460Z,99.57
2023-03-24T16:01:36.179Z,100.00
2023-03-24T16:04:08.670Z,100.00
2023-03-24T16:06:38.426Z,100.00
2023-03-24T16:09:10.749Z,100.00
2023-03-24T16:11:39.050Z,100.00
2023-03-24T16:14:23.138Z,100.00
2023-03-24T16:16:55.475Z,100.00
2023-03-24T16:19:24.149Z,100.00
2023-03-24T16:21:52.546Z,100.00
2023-03-24T16:24:20.801Z,100.00
2023-03-24T16:26:50.058Z,100.00
2023-03-24T16:29:21.840Z,100.00
2023-03-24T16:31:52.758Z,100.00
2023-03-24T16:34:22.619Z,100.00
2023-03-24T16:36:53.457Z,100.00
2023-03-24T16:39:24.305Z,100.00
2023-03-24T16:41:52.810Z,100.00
2023-03-24T16:44:23.260Z,100.00
2023-03-24T16:46:54.237Z,100.00
2023-03-24T16:49:24.486Z,100.00
2023-03-24T16:51:53.955Z,100.00
2023-03-24T16:54:22.439Z,100.00
2023-03-24T16:56:50.834Z,100.00
2023-03-24T16:59:19.844Z,100.00
2023-03-24T17:01:56.184Z,100.00
2023-03-24T17:04:27.351Z,100.00
2023-03-24T17:06:58.776Z,100.00
2023-03-24T17:09:34.994Z,100.00
2023-03-24T17:12:04.269Z,100.00
2023-03-24T17:14:32.633Z,100.00
2023-03-24T17:17:04.286Z,100.00
2023-03-24T17:19:33.119Z,100.00
2023-03-24T17:22:04.442Z,100.00
2023-03-24T17:24:36.656Z,100.00
2023-03-24T17:27:05.807Z,100.00
2023-03-24T17:29:34.107Z,100.00
2023-03-24T17:32:04.262Z,100.00
2023-03-24T17:34:32.441Z,100.00
2023-03-24T17:37:00.867Z,100.00
2023-03-24T17:39:29.098Z,100.00
2023-03-24T17:42:01.176Z,100.00
2023-03-24T17:44:31.817Z,100.00
2023-03-24T17:47:00.162Z,100.00
2023-03-24T17:49:30.332Z,100.00
2023-03-24T17:52:00.213Z,100.00
2023-03-24T17:54:31.040Z,100.00
2023-03-24T17:57:00.971Z,100.00
2023-03-24T17:59:29.723Z,100.00
2023-03-24T18:01:59.299Z,100.00
2023-03-24T18:04:29.171Z,100.00
2023-03-24T18:06:57.483Z,100.00
2023-03-24T18:09:29.535Z,100.00
2023-03-24T18:11:59.920Z,100.00
2023-03-24T18:14:30.605Z,100.00
2023-03-24T18:17:02.009Z,100.00
2023-03-24T18:19:41.089Z,100.00
2023-03-24T18:22:10.803Z,100.00
2023-03-24T18:24:42.588Z,100.00
2023-03-24T18:27:11.094Z,100.00
2023-03-24T18:29:41.236Z,100.00
2023-03-24T18:32:13.721Z,100.00
2023-03-24T18:34:48.261Z,100.00
2023-03-24T18:37:16.818Z,100.00
2023-03-24T18:39:45.703Z,100.00
2023-03-24T18:42:14.449Z,100.00
2023-03-24T18:44:44.915Z,100.00
2023-03-24T18:47:15.531Z,100.00
2023-03-24T18:49:46.221Z,100.00
2023-03-24T18:52:18.520Z,100.00
2023-03-24T18:54:49.256Z,100.00
2023-03-24T18:57:20.670Z,100.00
2023-03-24T18:59:49.247Z,100.00
2023-03-24T19:02:23.498Z,100.00
2023-03-24T19:04:55.091Z,100.00
2023-03-24T19:07:33.860Z,100.00
2023-03-24T19:10:05.326Z,100.00
2023-03-24T19:12:34.298Z,100.00
2023-03-24T19:15:04.539Z,100.00
2023-03-24T19:17:38.559Z,100.00
2023-03-24T19:20:11.139Z,100.00
2023-03-24T19:22:41.724Z,100.00
2023-03-24T19:25:12.565Z,100.00
2023-03-24T19:27:42.013Z,100.00
2023-03-24T19:30:18.114Z,100.00
2023-03-24T19:32:50.267Z,100.00
2023-03-24T19:35:21.736Z,100.00
2023-03-24T19:37:50.780Z,100.00
2023-03-24T19:40:19.358Z,100.00
2023-03-24T19:42:47.617Z,100.00
2023-03-24T19:45:18.924Z,100.00
2023-03-24T19:47:47.650Z,100.00
2023-03-24T19:50:18.616Z,100.00
2023-03-24T19:52:48.390Z,100.00
2023-03-24T19:55:16.853Z,100.00
2023-03-24T19:57:45.562Z,100.00
2023-03-24T20:00:16.817Z,100.00
2023-03-24T20:02:45.483Z,100.00
2023-03-24T20:05:14.703Z,100.00
2023-03-24T20:07:43.071Z,100.00
2023-03-24T20:10:13.184Z,100.00
2023-03-24T20:12:41.861Z,100.00
2023-03-24T20:15:11.115Z,100.00
2023-03-24T20:17:40.610Z,100.00
2023-03-24T20:20:11.433Z,100.00
2023-03-24T20:22:42.063Z,100.00
2023-03-24T20:25:13.909Z,100.00
2023-03-24T20:27:45.200Z,100.00
2023-03-24T20:30:16.030Z,100.00
2023-03-24T20:32:44.402Z,100.00
2023-03-24T20:35:13.156Z,100.00
2023-03-24T20:37:41.454Z,100.00
2023-03-24T20:40:12.424Z,100.00
2023-03-24T20:42:40.781Z,100.00
2023-03-24T20:45:11.946Z,100.00
2023-03-24T20:47:40.496Z,100.00
2023-03-24T20:50:10.516Z,100.00
2023-03-24T20:52:38.862Z,100.00
2023-03-24T20:55:09.938Z,100.00
2023-03-24T20:57:39.595Z,100.00
2023-03-24T21:00:13.750Z,100.00
2023-03-24T21:02:43.501Z,100.00
2023-03-24T21:05:37.184Z,100.00
2023-03-24T21:08:06.185Z,100.00
2023-03-24T21:10:37.098Z,100.00
2023-03-24T21:13:08.592Z,100.00
2023-03-24T21:15:43.203Z,99.88
2023-03-24T21:18:11.588Z,99.09
2023-03-24T21:20:42.394Z,99.31
2023-03-24T21:23:10.712Z,99.21
2023-03-24T21:25:39.702Z,98.79
2023-03-24T21:28:09.923Z,98.79
2023-03-24T21:30:38.484Z,98.34
2023-03-24T21:33:06.847Z,98.20
2023-03-24T21:35:35.624Z,98.20
2023-03-24T21:38:05.582Z,97.79
2023-03-24T21:40:34.375Z,98.21
2023-03-24T21:43:04.902Z,98.65
2023-03-24T21:45:36.821Z,97.88
2023-03-24T21:48:08.181Z,97.49
2023-03-24T21:50:38.977Z,97.96
2023-03-24T21:53:14.774Z,98.34
2023-03-24T21:55:48.188Z,97.73
2023-03-24T21:58:16.636Z,97.96
2023-03-24T22:00:48.862Z,97.73
2023-03-24T22:03:20.639Z,98.35
2023-03-24T22:05:49.155Z,98.06
2023-03-24T22:08:22.544Z,97.22
2023-03-24T22:10:54.340Z,97.87
2023-03-24T22:13:22.600Z,97.81
2023-03-24T22:15:56.070Z,97.99
2023-03-24T22:18:24.838Z,98.62
2023-03-24T22:21:00.944Z,97.62
2023-03-24T22:23:54.069Z,97.26
2023-03-24T22:26:22.288Z,96.78
2023-03-24T22:28:51.084Z,96.71
2023-03-24T22:31:23.114Z,97.05
2023-03-24T22:33:51.412Z,97.10
2023-03-24T22:36:19.707Z,96.65
2023-03-24T22:38:47.977Z,96.06
2023-03-24T22:41:16.291Z,96.00
2023-03-24T22:43:44.724Z,95.38
2023-03-24T22:46:13.065Z,95.19
2023-03-24T22:48:42.677Z,94.69
2023-03-24T22:51:16.776Z,94.75
2023-03-24T22:53:45.342Z,94.65
2023-03-24T22:56:13.752Z,94.27
2023-03-24T22:58:42.111Z,93.43
2023-03-24T23:01:11.013Z,94.57
2023-03-24T23:03:40.032Z,93.63
2023-03-24T23:06:19.691Z,93.09
2023-03-24T23:08:49.424Z,92.46
2023-03-24T23:11:17.727Z,92.86
2023-03-24T23:13:50.348Z,92.78
2023-03-24T23:16:19.724Z,92.39
2023-03-24T23:18:48.320Z,92.10
2023-03-24T23:21:19.607Z,92.54
2023-03-24T23:23:48.150Z,92.72
2023-03-24T23:26:25.144Z,92.17
2023-03-24T23:28:55.069Z,92.41
2023-03-24T23:31:26.744Z,94.01
2023-03-24T23:33:57.458Z,95.72
2023-03-24T23:36:28.378Z,95.77
2023-03-24T23:38:57.136Z,96.46
2023-03-24T23:41:25.538Z,95.58
2023-03-24T23:43:55.850Z,94.72
2023-03-24T23:46:25.018Z,94.63
2023-03-24T23:48:53.427Z,95.61
2023-03-24T23:51:22.138Z,95.10
2023-03-24T23:53:51.952Z,96.79
2023-03-24T23:56:22.724Z,98.11
2023-03-24T23:58:50.961Z,98.43
